Time;durP1;ratioP1;P1;durP2;ratioP2;P2;SDS_P1;SDS_P2;PMS_P1;PMS_P2;Temp;Humidity;BMP_temperature;BMP_pressure;BME280_temperature;BME280_humidity;BME280_pressure;Samples;Min_cycle;Max_cycle;Signal;HPM_P1;HPM_P2
2022/07/17 00:01:13;;;;;;;6.10;3.70;;;11.30;99.90;;;;;;5050252;28;20492;-87
2022/07/17 00:03:39;;;;;;;10.48;4.75;;;11.30;99.90;;;;;;5050418;28;20552;-89
2022/07/17 00:06:05;;;;;;;10.10;4.93;;;11.10;99.90;;;;;;5052576;28;20036;-87
2022/07/17 00:08:32;;;;;;;8.68;5.15;;;11.10;99.90;;;;;;5051411;28;20045;-88
2022/07/17 00:10:58;;;;;;;8.00;5.30;;;11.10;99.90;;;;;;5053267;28;20036;-87
2022/07/17 00:13:24;;;;;;;10.23;4.55;;;11.20;99.90;;;;;;5052069;28;20064;-86
2022/07/17 00:15:50;;;;;;;5.68;3.83;;;11.30;99.90;;;;;;5053994;28;20503;-88
2022/07/17 00:18:15;;;;;;;10.27;5.00;;;11.20;99.90;;;;;;5055539;28;20047;-83
2022/07/17 00:20:43;;;;;;;7.22;4.53;;;11.10;99.90;;;;;;5055506;28;20033;-87
2022/07/17 00:23:09;;;;;;;6.82;4.40;;;11.10;99.90;;;;;;5051744;28;20029;-88
2022/07/17 00:25:35;;;;;;;7.20;4.07;;;10.90;99.90;;;;;;5052088;28;20029;-88
2022/07/17 00:28:02;;;;;;;8.05;4.90;;;10.90;99.90;;;;;;5060465;28;20094;-87
2022/07/17 00:30:28;;;;;;;8.80;5.03;;;10.90;99.90;;;;;;5055107;28;20021;-88
2022/07/17 00:32:54;;;;;;;8.70;4.22;;;10.90;99.90;;;;;;5052094;28;20037;-90
2022/07/17 00:35:20;;;;;;;8.75;4.32;;;10.90;99.90;;;;;;5053193;28;20049;-86
2022/07/17 00:37:47;;;;;;;11.27;4.65;;;10.90;99.90;;;;;;5054341;28;20090;-89
2022/07/17 00:40:19;;;;;;;10.15;4.35;;;11.00;99.90;;;;;;5053163;28;20052;-89
2022/07/17 00:42:45;;;;;;;10.65;4.57;;;10.90;99.90;;;;;;5053420;28;20036;-88
2022/07/17 00:45:12;;;;;;;9.75;4.28;;;10.90;99.90;;;;;;5053963;28;20024;-91
2022/07/17 00:48:05;;;;;;;8.10;4.13;;;11.00;99.90;;;;;;5071082;28;20024;-89
2022/07/17 00:50:35;;;;;;;7.13;4.53;;;11.00;99.90;;;;;;5050673;28;20033;-90
2022/07/17 00:53:02;;;;;;;7.70;4.60;;;11.00;99.90;;;;;;5054615;28;20025;-88
2022/07/17 00:55:28;;;;;;;7.15;5.07;;;10.90;99.90;;;;;;5072928;28;20031;-87
2022/07/17 00:57:57;;;;;;;8.70;4.85;;;10.80;99.90;;;;;;5062506;28;20028;-87
2022/07/17 01:00:23;;;;;;;7.00;4.90;;;10.80;99.90;;;;;;5069428;28;20028;-84
2022/07/17 01:02:53;;;;;;;8.02;4.82;;;10.80;99.90;;;;;;5068096;28;20056;-89
2022/07/17 01:05:21;;;;;;;10.98;5.07;;;10.70;99.90;;;;;;5057166;28;20116;-87
2022/07/17 01:07:47;;;;;;;;;;;10.60;99.90;;;;;;5075437;28;20044;-87
2022/07/17 01:10:13;;;;;;;10.93;4.40;;;10.70;99.90;;;;;;5074191;28;19950;-87
2022/07/17 01:12:40;;;;;;;8.63;4.72;;;10.80;99.90;;;;;;5074668;28;20017;-90
2022/07/17 01:15:08;;;;;;;8.57;4.97;;;10.90;99.90;;;;;;5056542;28;20036;-87
2022/07/17 01:17:35;;;;;;;14.07;4.78;;;11.10;99.90;;;;;;5075640;28;20487;-86
2022/07/17 01:20:03;;;;;;;8.27;5.15;;;11.00;99.90;;;;;;5077927;28;20573;-88
2022/07/17 01:22:28;;;;;;;5.63;3.88;;;11.00;99.90;;;;;;5058796;28;20028;-85
2022/07/17 01:24:54;;;;;;;12.80;4.57;;;11.10;99.90;;;;;;5058160;28;20115;-89
2022/07/17 01:27:20;;;;;;;8.27;4.40;;;11.20;99.90;;;;;;5057896;28;20623;-89
2022/07/17 01:29:46;;;;;;;13.07;5.90;;;11.20;99.90;;;;;;5075473;28;20028;-86
2022/07/17 01:32:12;;;;;;;7.60;4.18;;;11.10;99.90;;;;;;5058163;28;20024;-89
2022/07/17 01:34:38;;;;;;;12.90;4.60;;;11.10;99.90;;;;;;5057327;28;20035;-88
2022/07/17 01:37:04;;;;;;;6.50;3.78;;;11.20;99.90;;;;;;5076080;28;20052;-86
2022/07/17 01:42:14;;;;;;;9.38;4.88;;;10.90;99.90;;;;;;5085559;28;20047;-86
2022/07/17 01:44:41;;;;;;;7.32;4.78;;;10.80;99.90;;;;;;5070771;28;20032;-86
2022/07/17 01:47:07;;;;;;;10.15;4.75;;;10.80;99.90;;;;;;5065759;28;20028;-88
2022/07/17 01:49:32;;;;;;;9.25;4.32;;;10.70;99.90;;;;;;5058550;28;20029;-88
2022/07/17 01:51:59;;;;;;;9.75;5.07;;;10.60;99.90;;;;;;5041229;28;20103;-88
2022/07/17 01:54:28;;;;;;;8.85;4.70;;;10.60;99.90;;;;;;5057906;28;20036;-88
2022/07/17 01:56:53;;;;;;;14.90;5.18;;;10.70;99.90;;;;;;5058026;28;20028;-86
2022/07/17 01:59:19;;;;;;;7.70;5.30;;;10.60;99.90;;;;;;5057114;28;20040;-88
2022/07/17 02:01:45;;;;;;;8.45;4.93;;;10.70;99.90;;;;;;5057348;28;20079;-89
2022/07/17 02:04:11;;;;;;;9.98;5.07;;;10.60;99.90;;;;;;5057086;28;20017;-91
2022/07/17 02:06:37;;;;;;;8.38;4.50;;;10.70;99.90;;;;;;5075652;28;20043;-85
2022/07/17 02:09:02;;;;;;;10.45;5.00;;;10.60;99.90;;;;;;5058300;28;20035;-87
2022/07/17 02:11:29;;;;;;;8.70;5.63;;;10.50;99.90;;;;;;5057598;28;20035;-87
2022/07/17 02:13:54;;;;;;;14.15;5.72;;;10.40;99.90;;;;;;5056917;28;20553;-89
2022/07/17 02:16:20;;;;;;;13.00;5.18;;;10.40;99.90;;;;;;5056457;28;20028;-88
2022/07/17 02:18:46;;;;;;;11.13;5.35;;;10.40;99.90;;;;;;5057553;28;20032;-86
2022/07/17 02:21:12;;;;;;;8.60;5.20;;;10.30;99.90;;;;;;5074550;28;20024;-89
2022/07/17 02:23:39;;;;;;;13.63;5.15;;;10.30;99.90;;;;;;5056665;28;20020;-87
2022/07/17 02:26:05;;;;;;;7.73;4.80;;;10.40;99.90;;;;;;5074860;28;20044;-88
2022/07/17 02:28:31;;;;;;;15.43;5.22;;;10.40;99.90;;;;;;5056918;28;20459;-89
2022/07/17 02:30:57;;;;;;;13.90;5.40;;;10.50;99.90;;;;;;5056394;28;20101;-87
2022/07/17 02:33:24;;;;;;;11.60;5.60;;;10.50;99.90;;;;;;5056863;28;20028;-86
2022/07/17 02:35:50;;;;;;;11.45;5.32;;;10.40;99.90;;;;;;5055908;28;20064;-86
2022/07/17 02:38:16;;;;;;;10.75;5.28;;;10.50;99.90;;;;;;5057005;28;20519;-87
2022/07/17 02:40:43;;;;;;;10.18;5.18;;;10.30;99.90;;;;;;5056658;28;20460;-87
2022/07/17 02:43:09;;;;;;;12.55;5.75;;;10.20;99.90;;;;;;5075587;28;20036;-87
2022/07/17 02:45:36;;;;;;;12.07;5.40;;;10.20;99.90;;;;;;5056777;28;20016;-90
2022/07/17 02:48:02;;;;;;;10.32;5.13;;;10.10;99.90;;;;;;5057805;28;20263;-89
2022/07/17 02:50:28;;;;;;;21.58;6.65;;;10.00;99.90;;;;;;5064107;28;20035;-88
2022/07/17 02:52:54;;;;;;;14.68;5.40;;;10.00;99.90;;;;;;5060976;28;20031;-88
2022/07/17 02:55:21;;;;;;;14.15;6.10;;;10.00;99.90;;;;;;5056641;28;20387;-85
2022/07/17 02:57:47;;;;;;;9.93;5.90;;;10.00;99.90;;;;;;5056405;28;20020;-87
2022/07/17 03:00:16;;;;;;;10.85;5.32;;;10.10;99.90;;;;;;5077357;28;20016;-87
2022/07/17 03:02:44;;;;;;;13.75;5.93;;;10.00;99.90;;;;;;5077656;28;20032;-86
2022/07/17 03:05:11;;;;;;;12.55;5.90;;;10.10;99.90;;;;;;5060492;28;20024;-87
2022/07/17 03:07:38;;;;;;;15.77;5.82;;;10.10;99.90;;;;;;5055033;28;20024;-90
2022/07/17 03:10:05;;;;;;;9.40;5.90;;;10.10;99.90;;;;;;5073492;28;20182;-86
2022/07/17 03:12:31;;;;;;;19.38;6.55;;;10.20;99.90;;;;;;5073776;28;20096;-87
2022/07/17 03:14:57;;;;;;;7.18;5.15;;;10.10;99.90;;;;;;5070849;23;20050;-57
2022/07/17 03:17:24;;;;;;;10.45;5.40;;;10.10;99.90;;;;;;5031260;28;20178;-54
2022/07/17 03:19:49;;;;;;;13.43;4.72;;;10.00;99.90;;;;;;5031351;28;20025;-54
2022/07/17 03:22:15;;;;;;;13.00;5.40;;;10.00;99.90;;;;;;5030461;28;20037;-55
2022/07/17 03:24:41;;;;;;;14.68;4.95;;;10.00;99.90;;;;;;5031147;28;20036;-55
2022/07/17 03:27:07;;;;;;;12.05;4.97;;;9.90;99.90;;;;;;5031073;28;20022;-54
2022/07/17 03:29:33;;;;;;;13.57;5.57;;;10.00;99.90;;;;;;5031020;28;20554;-55
2022/07/17 03:31:58;;;;;;;13.15;5.45;;;9.90;99.90;;;;;;5031101;28;20049;-55
2022/07/17 03:34:24;;;;;;;11.77;5.35;;;9.90;99.90;;;;;;5030971;28;20041;-54
2022/07/17 03:36:50;;;;;;;19.73;6.28;;;10.00;99.90;;;;;;5031012;28;20665;-55
2022/07/17 03:39:16;;;;;;;10.55;5.43;;;9.90;99.90;;;;;;5031100;28;20044;-55
2022/07/17 03:41:42;;;;;;;8.38;5.47;;;9.90;99.90;;;;;;5030757;28;20036;-54
2022/07/17 03:44:07;;;;;;;12.35;5.53;;;10.10;99.90;;;;;;5030855;28;20025;-54
2022/07/17 03:46:33;;;;;;;10.00;5.50;;;10.10;99.90;;;;;;5030862;28;20029;-54
2022/07/17 03:48:59;;;;;;;13.30;5.47;;;10.00;99.90;;;;;;5029596;28;20519;-55
2022/07/17 03:51:25;;;;;;;14.15;5.20;;;10.20;99.90;;;;;;5030951;28;20033;-55
2022/07/17 03:53:51;;;;;;;10.10;6.32;;;10.20;99.90;;;;;;5030744;28;20105;-55
2022/07/17 03:56:17;;;;;;;11.43;5.43;;;10.20;99.90;;;;;;5030680;28;20033;-54
2022/07/17 03:58:42;;;;;;;8.80;5.03;;;10.10;99.90;;;;;;5030721;28;20029;-56
2022/07/17 04:01:08;;;;;;;8.40;4.50;;;10.20;99.90;;;;;;5030629;28;20029;-55
2022/07/17 04:03:34;;;;;;;12.63;5.18;;;10.20;99.90;;;;;;5030700;28;20029;-55
2022/07/17 04:06:00;;;;;;;11.02;5.57;;;10.30;99.90;;;;;;5030648;28;20025;-55
2022/07/17 04:08:25;;;;;;;10.20;5.45;;;10.30;99.90;;;;;;5030663;28;20059;-55
2022/07/17 04:10:51;;;;;;;15.48;4.97;;;10.30;99.90;;;;;;5030583;28;20141;-55
2022/07/17 04:13:17;;;;;;;18.23;5.25;;;10.40;99.90;;;;;;5030591;28;20060;-55
2022/07/17 04:15:59;;;;;;;13.00;5.15;;;10.40;99.90;;;;;;5044569;28;20058;-54
2022/07/17 04:18:33;;;;;;;10.55;5.30;;;10.40;99.90;;;;;;5050506;28;20031;-57
2022/07/17 04:21:02;;;;;;;9.50;4.78;;;10.60;99.90;;;;;;5050411;28;20017;-54
2022/07/17 04:23:27;;;;;;;13.60;4.88;;;10.70;99.90;;;;;;5050269;28;20079;-55
2022/07/17 04:25:54;;;;;;;11.85;5.50;;;10.70;99.90;;;;;;5050322;28;20464;-54
2022/07/17 04:28:20;;;;;;;9.40;4.57;;;10.80;99.90;;;;;;5050374;28;20057;-55
2022/07/17 04:30:46;;;;;;;13.63;4.95;;;10.80;99.90;;;;;;5050344;28;20025;-55
2022/07/17 04:33:12;;;;;;;11.35;4.55;;;10.90;99.90;;;;;;5051027;28;20108;-57
2022/07/17 04:35:38;;;;;;;10.90;4.53;;;10.90;99.90;;;;;;5054898;28;20075;-55
2022/07/17 04:38:05;;;;;;;14.03;4.50;;;11.00;99.90;;;;;;5054612;28;20105;-55
2022/07/17 04:40:32;;;;;;;9.85;4.75;;;11.10;99.90;;;;;;5054194;28;20033;-55
2022/07/17 04:42:59;;;;;;;10.40;4.07;;;11.10;99.90;;;;;;5054216;28;20029;-55
2022/07/17 04:45:25;;;;;;;7.68;3.67;;;11.20;99.90;;;;;;5054139;28;20025;-55
2022/07/17 04:47:50;;;;;;;12.27;4.60;;;11.20;99.90;;;;;;5054023;28;20027;-56
2022/07/17 04:50:16;;;;;;;8.10;4.53;;;11.30;99.90;;;;;;5053999;28;20389;-56
2022/07/17 04:52:42;;;;;;;7.68;4.05;;;11.40;99.90;;;;;;5035941;28;20036;-55
2022/07/17 04:55:08;;;;;;;7.97;3.72;;;11.40;99.90;;;;;;5053783;28;20033;-55
2022/07/17 04:57:33;;;;;;;13.80;5.10;;;11.50;99.90;;;;;;5052550;28;20029;-55
2022/07/17 04:59:59;;;;;;;12.07;4.82;;;11.50;99.90;;;;;;5053964;28;20036;-56
2022/07/17 05:02:25;;;;;;;13.23;4.65;;;11.60;99.90;;;;;;5035857;28;20539;-55
2022/07/17 05:04:51;;;;;;;12.65;4.10;;;11.60;99.90;;;;;;5053686;28;20028;-55
2022/07/17 05:07:17;;;;;;;14.20;3.72;;;11.70;99.90;;;;;;5053621;28;20025;-59
2022/07/17 05:09:43;;;;;;;10.10;3.63;;;11.70;99.90;;;;;;5053520;28;20033;-55
2022/07/17 05:12:08;;;;;;;14.88;4.47;;;11.90;99.90;;;;;;5053775;28;20017;-54
2022/07/17 05:14:34;;;;;;;14.82;4.97;;;12.00;99.90;;;;;;5053389;28;20121;-55
2022/07/17 05:17:00;;;;;;;11.65;4.20;;;12.00;99.90;;;;;;5053530;28;20027;-55
2022/07/17 05:19:26;;;;;;;11.40;4.57;;;12.10;99.90;;;;;;5053444;28;20028;-54
2022/07/17 05:21:52;;;;;;;12.27;4.78;;;12.20;99.90;;;;;;5035422;28;20380;-55
2022/07/17 05:24:18;;;;;;;10.75;4.20;;;12.20;99.90;;;;;;5053603;28;20475;-55
2022/07/17 05:26:44;;;;;;;11.00;4.18;;;12.20;99.90;;;;;;5053173;28;20477;-55
2022/07/17 05:29:10;;;;;;;11.95;4.68;;;12.30;99.90;;;;;;5053264;28;20025;-55
2022/07/17 05:31:35;;;;;;;14.98;4.40;;;12.40;99.90;;;;;;5053205;28;20033;-55
2022/07/17 05:34:01;;;;;;;15.75;4.15;;;12.50;99.90;;;;;;5053038;28;20021;-55
2022/07/17 05:36:27;;;;;;;15.05;4.45;;;12.60;99.90;;;;;;5053039;28;20385;-55
2022/07/17 05:38:53;;;;;;;14.25;4.30;;;12.70;99.90;;;;;;5052983;28;20139;-56
2022/07/17 05:41:18;;;;;;;10.32;3.38;;;12.70;99.90;;;;;;5053001;28;20032;-55
2022/07/17 05:43:44;;;;;;;11.18;3.55;;;12.80;99.90;;;;;;5052934;28;20310;-55
2022/07/17 05:46:10;;;;;;;10.18;3.55;;;12.80;99.90;;;;;;5052113;28;20059;-55
2022/07/17 05:48:35;;;;;;;10.35;2.80;;;12.90;99.90;;;;;;5052799;28;20033;-55
2022/07/17 05:51:01;;;;;;;25.52;3.05;;;13.00;99.90;;;;;;5052889;28;20025;-56
2022/07/17 05:53:27;;;;;;;8.32;2.95;;;13.10;99.90;;;;;;5053041;28;20021;-55
2022/07/17 05:55:53;;;;;;;16.63;4.70;;;13.30;99.90;;;;;;5052634;28;20036;-55
2022/07/17 05:58:19;;;;;;;9.65;3.17;;;13.30;99.90;;;;;;5052691;28;20040;-55
2022/07/17 06:00:45;;;;;;;13.45;4.00;;;13.40;99.90;;;;;;5052763;28;20032;-55
2022/07/17 06:03:11;;;;;;;10.98;2.85;;;13.40;99.90;;;;;;5052552;28;20480;-55
2022/07/17 06:05:37;;;;;;;9.90;2.70;;;13.50;99.90;;;;;;5052458;28;20511;-55
2022/07/17 06:08:03;;;;;;;9.98;3.33;;;13.50;99.90;;;;;;5052472;28;20441;-55
2022/07/17 06:10:29;;;;;;;12.27;3.47;;;13.60;99.90;;;;;;5052501;28;20116;-55
2022/07/17 06:12:56;;;;;;;10.10;3.40;;;13.60;99.90;;;;;;5052451;28;20436;-55
2022/07/17 06:15:22;;;;;;;9.20;3.23;;;13.70;99.90;;;;;;5052099;28;20515;-54
2022/07/17 06:17:49;;;;;;;9.48;2.78;;;13.90;99.90;;;;;;5052174;28;20025;-57
2022/07/17 06:20:16;;;;;;;9.10;3.35;;;14.00;99.90;;;;;;5052346;28;20487;-54
2022/07/17 06:22:42;;;;;;;12.07;3.42;;;14.00;99.90;;;;;;5052301;28;20437;-55
2022/07/17 06:25:09;;;;;;;13.40;3.53;;;14.10;99.90;;;;;;5052179;28;20029;-55
2022/07/17 06:27:35;;;;;;;8.60;2.55;;;14.10;99.90;;;;;;5052099;28;20282;-55
2022/07/17 06:30:01;;;;;;;15.70;3.40;;;14.10;99.90;;;;;;5052048;28;20037;-55
2022/07/17 06:32:27;;;;;;;8.48;2.20;;;14.20;99.90;;;;;;5051919;28;20056;-55
2022/07/17 06:34:52;;;;;;;8.63;2.22;;;14.30;99.90;;;;;;5052051;28;20485;-54
2022/07/17 06:37:18;;;;;;;7.43;2.15;;;14.30;99.90;;;;;;5052199;28;20500;-55
2022/07/17 06:39:44;;;;;;;10.25;2.47;;;14.40;99.90;;;;;;5051841;28;20109;-54
2022/07/17 06:42:10;;;;;;;14.45;2.15;;;14.40;99.90;;;;;;5053100;28;20033;-55
2022/07/17 06:44:36;;;;;;;11.57;2.78;;;14.60;99.90;;;;;;5052569;28;20045;-55
2022/07/17 06:47:02;;;;;;;15.70;3.10;;;14.50;99.90;;;;;;5051730;28;20025;-55
2022/07/17 06:49:28;;;;;;;11.63;2.80;;;14.50;99.90;;;;;;5051779;28;20032;-56
2022/07/17 06:51:54;;;;;;;14.52;2.65;;;14.50;99.90;;;;;;5051661;28;20118;-57
2022/07/17 06:54:23;;;;;;;15.02;2.03;;;14.60;99.90;;;;;;5051404;28;20048;-55
2022/07/17 06:56:49;;;;;;;11.18;2.38;;;14.70;99.90;;;;;;5050556;28;20021;-55
2022/07/17 06:59:15;;;;;;;11.65;2.25;;;14.80;99.90;;;;;;5051502;28;20104;-54
2022/07/17 07:01:40;;;;;;;9.63;2.83;;;14.90;99.90;;;;;;5051457;28;20143;-55
2022/07/17 07:04:06;;;;;;;14.25;2.65;;;14.90;99.90;;;;;;5051478;28;20600;-57
2022/07/17 07:06:32;;;;;;;6.43;1.67;;;14.90;99.90;;;;;;5051655;28;20372;-56
2022/07/17 07:08:57;;;;;;;9.50;1.60;;;15.00;99.90;;;;;;5051469;28;20159;-56
2022/07/17 07:11:24;;;;;;;6.93;1.98;;;15.00;99.90;;;;;;5051344;28;20460;-56
2022/07/17 07:13:50;;;;;;;9.73;2.10;;;15.10;99.90;;;;;;5051267;28;20111;-56
2022/07/17 07:16:16;;;;;;;6.82;1.45;;;15.20;99.90;;;;;;5050905;28;20411;-56
2022/07/17 07:18:41;;;;;;;8.75;1.98;;;15.30;99.90;;;;;;5051269;28;20024;-56
2022/07/17 07:21:07;;;;;;;7.60;2.40;;;15.30;99.90;;;;;;5051325;28;20358;-56
2022/07/17 07:23:33;;;;;;;11.35;2.03;;;15.50;99.90;;;;;;5051063;28;20540;-56
2022/07/17 07:25:59;;;;;;;8.60;1.65;;;15.50;99.90;;;;;;5050996;28;20416;-56
2022/07/17 07:28:25;;;;;;;10.25;1.85;;;15.70;99.90;;;;;;5050965;28;20060;-56
2022/07/17 07:30:51;;;;;;;13.15;1.85;;;15.80;99.90;;;;;;5050923;28;20032;-56
2022/07/17 07:33:16;;;;;;;10.07;1.85;;;15.80;99.90;;;;;;5049491;28;20120;-56
2022/07/17 07:35:42;;;;;;;9.85;2.17;;;16.00;99.90;;;;;;5050689;28;20049;-56
2022/07/17 07:38:08;;;;;;;6.88;1.50;;;16.00;99.90;;;;;;5050863;28;20027;-56
2022/07/17 07:40:34;;;;;;;8.45;1.52;;;16.10;99.90;;;;;;5050861;28;20124;-56
2022/07/17 07:43:01;;;;;;;7.28;1.58;;;16.00;99.90;;;;;;5033248;28;20115;-56
2022/07/17 07:45:26;;;;;;;5.22;1.30;;;16.10;99.90;;;;;;5050729;28;20021;-56
2022/07/17 07:47:52;;;;;;;10.23;1.70;;;16.20;99.90;;;;;;5050976;28;20442;-55
2022/07/17 07:50:21;;;;;;;6.38;2.03;;;16.20;99.90;;;;;;5050856;28;20090;-55
2022/07/17 07:52:47;;;;;;;7.40;2.05;;;16.30;99.90;;;;;;5050634;28;20044;-55
2022/07/17 07:55:13;;;;;;;9.80;2.13;;;16.50;99.90;;;;;;5050431;28;20154;-56
2022/07/17 07:57:39;;;;;;;9.95;2.83;;;16.60;99.90;;;;;;5050636;28;20032;-57
2022/07/17 08:00:06;;;;;;;10.98;2.10;;;16.60;99.90;;;;;;5050412;28;20021;-55
2022/07/17 08:02:32;;;;;;;6.70;1.20;;;16.60;99.90;;;;;;5050501;28;20028;-55
2022/07/17 08:04:58;;;;;;;6.75;2.28;;;16.70;99.90;;;;;;5050410;28;20037;-55
2022/07/17 08:07:26;;;;;;;8.27;1.70;;;16.90;99.90;;;;;;5032500;28;20027;-55
2022/07/17 08:09:52;;;;;;;9.18;1.77;;;16.80;99.90;;;;;;5032758;28;20029;-55
2022/07/17 08:12:17;;;;;;;6.32;1.95;;;16.70;99.90;;;;;;5050426;28;20029;-55
2022/07/17 08:14:43;;;;;;;10.70;2.13;;;16.60;99.90;;;;;;5050053;28;20067;-55
2022/07/17 08:17:09;;;;;;;8.82;2.15;;;16.80;99.90;;;;;;5050387;28;20036;-55
2022/07/17 08:19:34;;;;;;;7.43;1.48;;;16.80;99.90;;;;;;5050329;28;20025;-55
2022/07/17 08:22:00;;;;;;;4.05;1.10;;;17.00;99.90;;;;;;5050473;28;20725;-56
2022/07/17 08:24:26;;;;;;;7.10;1.38;;;17.10;99.90;;;;;;5050017;28;20025;-55
2022/07/17 08:26:52;;;;;;;6.10;1.83;;;17.20;99.90;;;;;;5050372;28;20048;-55
2022/07/17 08:29:17;;;;;;;4.65;1.25;;;17.40;99.90;;;;;;5050254;28;20078;-55
2022/07/17 08:31:43;;;;;;;12.93;1.98;;;17.30;99.90;;;;;;5050442;28;20025;-55
2022/07/17 08:34:09;;;;;;;6.80;1.38;;;17.30;99.90;;;;;;5050168;28;20071;-55
2022/07/17 08:36:35;;;;;;;6.38;1.65;;;17.30;99.90;;;;;;5050327;28;20033;-55
2022/07/17 08:39:01;;;;;;;8.95;1.60;;;17.50;99.90;;;;;;5050216;28;20071;-56
2022/07/17 08:41:28;;;;;;;7.65;1.23;;;17.70;99.90;;;;;;5050077;28;20064;-56
2022/07/17 08:43:54;;;;;;;6.78;1.48;;;17.80;99.90;;;;;;5049980;28;20031;-56
2022/07/17 08:46:25;;;;;;;7.28;1.70;;;17.70;99.90;;;;;;5050158;28;20383;-56
2022/07/17 08:48:57;;;;;;;6.00;1.30;;;17.60;99.90;;;;;;5051577;28;20029;-56
2022/07/17 08:51:24;;;;;;;7.13;1.25;;;17.80;99.90;;;;;;5050061;28;20056;-55
2022/07/17 08:53:51;;;;;;;4.85;1.23;;;18.00;99.90;;;;;;5049920;28;20508;-56
2022/07/17 08:56:16;;;;;;;4.13;1.00;;;18.30;99.90;;;;;;5049767;28;20449;-55
2022/07/17 08:58:42;;;;;;;6.40;1.30;;;18.50;99.90;;;;;;5050021;28;20477;-57
2022/07/17 09:01:07;;;;;;;4.90;1.15;;;18.60;99.90;;;;;;5032010;28;20057;-56
2022/07/17 09:03:34;;;;;;;3.90;1.02;;;18.40;99.90;;;;;;5049938;28;20040;-55
2022/07/17 09:05:59;;;;;;;4.97;1.00;;;18.30;99.90;;;;;;5049592;28;20025;-56
2022/07/17 09:08:27;;;;;;;4.68;0.95;;;18.30;99.90;;;;;;5049645;28;20041;-55
2022/07/17 09:10:53;;;;;;;9.23;1.85;;;18.40;99.90;;;;;;5032009;28;20025;-55
2022/07/17 09:13:21;;;;;;;7.30;1.42;;;18.60;99.90;;;;;;5049916;28;20133;-55
2022/07/17 09:15:49;;;;;;;6.18;1.08;;;18.70;99.90;;;;;;5049398;28;20469;-56
2022/07/17 09:18:17;;;;;;;3.55;1.00;;;18.80;99.90;;;;;;5049862;28;20035;-55
2022/07/17 09:20:47;;;;;;;;;;;18.70;99.90;;;;;;5051754;28;20037;-55
2022/07/17 09:23:13;;;;;;;3.55;1.52;;;18.90;99.90;;;;;;5053343;28;19996;-55
2022/07/17 09:25:42;;;;;;;5.45;1.05;;;19.20;99.90;;;;;;5053134;28;20560;-56
2022/07/17 09:28:10;;;;;;;9.50;1.15;;;19.40;98.80;;;;;;5035291;28;20444;-54
2022/07/17 09:30:39;;;;;;;4.75;1.02;;;19.50;97.10;;;;;;5053194;28;20112;-55
2022/07/17 09:33:11;;;;;;;6.40;1.00;;;19.70;98.40;;;;;;5053132;28;20105;-55
2022/07/17 09:35:45;;;;;;;5.80;1.02;;;19.70;98.30;;;;;;5052936;28;20064;-54
2022/07/17 09:38:12;;;;;;;7.25;1.05;;;19.80;96.90;;;;;;5053047;28;20538;-55
2022/07/17 09:43:21;;;;;;;8.02;1.05;;;20.10;93.80;;;;;;5053124;28;20036;-56
2022/07/17 09:45:48;;;;;;;4.78;1.30;;;20.30;95.70;;;;;;5052738;28;20029;-54
2022/07/17 09:48:16;;;;;;;5.07;1.15;;;20.40;95.10;;;;;;5052735;28;20117;-56
2022/07/17 09:50:43;;;;;;;4.13;1.23;;;20.60;97.10;;;;;;5052699;28;20057;-55
2022/07/17 09:53:09;;;;;;;2.95;0.60;;;20.80;96.00;;;;;;5052787;28;20021;-55
2022/07/17 09:55:40;;;;;;;2.17;0.65;;;21.00;91.30;;;;;;5052742;28;20103;-55
2022/07/17 09:58:07;;;;;;;5.35;0.90;;;21.00;88.70;;;;;;5052679;28;20095;-56
2022/07/17 10:00:35;;;;;;;;;;;21.20;90.30;;;;;;5052851;28;20025;-56
2022/07/17 10:03:00;;;;;;;7.28;1.73;;;21.30;90.40;;;;;;5034484;28;20645;-57
2022/07/17 10:05:27;;;;;;;2.53;0.50;;;21.30;86.00;;;;;;5052199;28;20025;-56
2022/07/17 10:07:52;;;;;;;2.33;0.65;;;20.60;84.80;;;;;;5052269;28;20060;-54
2022/07/17 10:10:19;;;;;;;6.15;0.98;;;20.70;90.80;;;;;;5052349;28;20025;-54
2022/07/17 10:12:48;;;;;;;4.97;1.05;;;21.10;86.30;;;;;;5052600;28;20025;-56
2022/07/17 10:15:15;;;;;;;2.40;0.80;;;21.40;87.10;;;;;;5052160;28;20041;-57
2022/07/17 10:17:40;;;;;;;1.95;0.57;;;21.60;85.50;;;;;;5052308;28;20017;-54
2022/07/17 10:20:07;;;;;;;2.17;0.80;;;21.30;81.90;;;;;;5052334;28;20067;-54
2022/07/17 10:22:46;;;;;;;2.30;0.68;;;21.10;79.50;;;;;;5052139;28;20031;-55
2022/07/17 10:25:16;;;;;;;4.88;1.00;;;20.70;79.50;;;;;;5052076;28;20033;-56
2022/07/17 10:27:49;;;;;;;5.00;1.17;;;21.20;83.60;;;;;;5052223;28;20090;-57
2022/07/17 10:30:23;;;;;;;2.88;1.00;;;21.70;84.20;;;;;;5052037;28;20104;-56
2022/07/17 10:33:07;;;;;;;5.13;0.80;;;22.00;83.20;;;;;;5051788;28;20055;-56
2022/07/17 10:35:45;;;;;;;4.47;0.80;;;22.10;76.90;;;;;;5051877;28;20082;-57
2022/07/17 10:38:12;;;;;;;5.35;0.77;;;22.00;73.80;;;;;;5051905;28;20171;-56
2022/07/17 10:40:38;;;;;;;2.33;0.88;;;22.30;76.20;;;;;;5051963;28;20029;-56
2022/07/17 10:43:08;;;;;;;4.45;1.20;;;22.00;73.90;;;;;;5051951;28;20039;-56
2022/07/17 10:45:44;;;;;;;4.13;0.77;;;21.90;78.70;;;;;;5051754;28;20048;-56
2022/07/17 10:48:22;;;;;;;7.13;1.60;;;21.60;76.10;;;;;;5051793;28;20455;-56
2022/07/17 10:50:54;;;;;;;4.78;1.25;;;21.90;78.50;;;;;;5051648;28;20230;-58
2022/07/17 10:53:22;;;;;;;3.17;1.25;;;22.30;80.10;;;;;;5052495;28;20052;-56
2022/07/17 10:55:50;;;;;;;8.85;1.60;;;22.70;81.90;;;;;;5052926;28;20045;-56
2022/07/17 10:58:37;;;;;;;4.65;1.45;;;22.80;79.10;;;;;;5033642;28;20421;-56
2022/07/17 11:01:14;;;;;;;6.65;1.35;;;22.80;78.60;;;;;;5051597;28;20079;-56
2022/07/17 11:03:48;;;;;;;5.60;1.67;;;22.70;77.30;;;;;;5033435;28;20048;-56
2022/07/17 11:06:30;;;;;;;7.15;1.20;;;23.00;75.00;;;;;;5051425;28;20064;-57
2022/07/17 11:09:11;;;;;;;6.47;1.10;;;23.00;71.40;;;;;;5051391;28;20059;-57
2022/07/17 11:11:49;;;;;;;5.93;1.10;;;22.90;79.70;;;;;;5051070;28;20119;-57
2022/07/17 11:14:24;;;;;;;5.47;0.90;;;22.40;76.80;;;;;;5050954;28;20415;-56
2022/07/17 11:16:53;;;;;;;6.35;1.15;;;22.80;77.30;;;;;;5031037;28;20061;-57
2022/07/17 11:19:24;;;;;;;4.38;0.93;;;22.60;74.60;;;;;;5031091;28;20034;-57
2022/07/17 11:21:51;;;;;;;5.07;1.20;;;22.60;72.40;;;;;;5031006;28;20032;-56
2022/07/17 11:24:17;;;;;;;3.00;0.73;;;22.60;73.40;;;;;;5013313;28;20499;-56
2022/07/17 11:26:44;;;;;;;5.15;0.90;;;23.00;73.90;;;;;;5031007;28;20049;-56
2022/07/17 11:29:10;;;;;;;5.53;1.33;;;22.90;68.30;;;;;;5031290;28;20025;-57
2022/07/17 11:31:36;;;;;;;6.43;1.13;;;23.20;70.50;;;;;;5031183;28;20041;-55
2022/07/17 11:34:08;;;;;;;5.70;1.10;;;23.00;67.50;;;;;;5030886;28;20072;-55
2022/07/17 11:36:41;;;;;;;5.22;1.00;;;23.30;70.50;;;;;;5030873;28;20047;-55
2022/07/17 11:39:18;;;;;;;3.88;1.08;;;23.60;73.70;;;;;;5030849;28;20362;-55
2022/07/17 11:41:50;;;;;;;6.07;1.17;;;23.50;70.80;;;;;;5030966;28;20017;-57
2022/07/17 11:44:19;;;;;;;8.02;1.33;;;22.60;65.60;;;;;;5030184;28;20040;-55
2022/07/17 11:46:48;;;;;;;5.97;1.00;;;22.20;68.90;;;;;;5030845;28;20017;-55
2022/07/17 11:49:41;;;;;;;8.43;1.30;;;21.70;68.60;;;;;;5030691;28;20040;-54
2022/07/17 11:52:10;;;;;;;7.15;1.73;;;21.70;72.10;;;;;;5030714;28;20050;-56
2022/07/17 11:54:56;;;;;;;7.10;1.33;;;22.00;71.80;;;;;;5030592;28;20048;-55
2022/07/17 11:57:25;;;;;;;6.93;1.10;;;22.50;72.30;;;;;;5030810;28;20021;-55
2022/07/17 11:59:52;;;;;;;4.05;0.70;;;22.90;70.40;;;;;;5030873;28;20490;-56
2022/07/17 12:02:28;;;;;;;3.90;0.90;;;23.20;74.60;;;;;;5030514;28;20072;-56
2022/07/17 12:04:57;;;;;;;8.10;1.35;;;23.00;66.90;;;;;;5030514;28;20113;-57
2022/07/17 12:07:25;;;;;;;4.90;0.90;;;23.20;72.70;;;;;;5030306;28;20426;-55
2022/07/17 12:09:54;;;;;;;5.20;0.95;;;22.50;63.60;;;;;;5030418;28;20029;-56
2022/07/17 12:12:24;;;;;;;4.15;1.00;;;22.70;66.30;;;;;;5030166;28;20029;-55
2022/07/17 12:14:55;;;;;;;4.55;1.48;;;23.00;68.60;;;;;;5013545;28;20064;-55
2022/07/17 12:17:22;;;;;;;2.88;1.05;;;23.40;69.50;;;;;;5030416;28;20138;-55
2022/07/17 12:19:48;;;;;;;5.43;0.90;;;22.90;66.90;;;;;;5030399;28;20477;-55
2022/07/17 12:22:14;;;;;;;6.20;0.82;;;23.50;68.30;;;;;;5030162;28;20263;-57
2022/07/17 12:24:46;;;;;;;5.47;0.90;;;23.60;64.80;;;;;;5030314;28;20033;-55
2022/07/17 12:27:16;;;;;;;5.97;1.15;;;23.40;62.00;;;;;;5030240;28;20032;-55
2022/07/17 12:29:44;;;;;;;5.53;0.90;;;23.40;66.20;;;;;;5030500;28;20052;-56
2022/07/17 12:32:11;;;;;;;6.43;1.15;;;23.60;68.60;;;;;;5030211;28;20536;-56
2022/07/17 12:34:44;;;;;;;7.38;1.00;;;23.80;65.50;;;;;;5030140;28;20037;-55
2022/07/17 12:37:15;;;;;;;4.60;0.90;;;24.10;65.20;;;;;;5030204;28;20112;-55
2022/07/17 12:39:42;;;;;;;5.25;0.85;;;24.10;72.60;;;;;;5030275;28;20140;-55
2022/07/17 12:42:09;;;;;;;3.17;0.80;;;24.10;64.70;;;;;;5030245;28;20053;-57
2022/07/17 12:44:35;;;;;;;3.72;0.75;;;24.00;64.70;;;;;;5030241;28;20071;-55
2022/07/17 12:47:02;;;;;;;3.95;0.98;;;23.60;63.10;;;;;;5030350;28;20040;-55
2022/07/17 12:49:28;;;;;;;3.38;1.15;;;23.80;65.00;;;;;;5030221;28;20079;-55